createdAt,value
2022-09-24T00:00:53.264Z,99742.78
2022-09-24T00:03:23.544Z,99745.44
2022-09-24T00:05:50.910Z,99732.50
2022-09-24T00:08:19.329Z,99740.06
2022-09-24T00:10:48.869Z,99740.91
2022-09-24T00:13:18.660Z,99740.72
2022-09-24T00:15:47.949Z,99733.88
2022-09-24T00:18:17.411Z,99734.72
2022-09-24T00:20:46.104Z,99735.50
2022-09-24T00:23:13.502Z,99733.28
2022-09-24T00:25:59.768Z,99735.75
2022-09-24T00:28:30.128Z,99731.16
2022-09-24T00:30:59.019Z,99728.34
2022-09-24T00:33:28.082Z,99736.16
2022-09-24T00:36:02.097Z,99731.66
2022-09-24T00:38:29.964Z,99728.59
2022-09-24T00:40:57.683Z,99734.34
2022-09-24T00:43:27.050Z,99729.44
2022-09-24T00:45:56.405Z,99720.81
2022-09-24T00:48:24.523Z,99735.16
2022-09-24T00:50:51.950Z,99727.94
2022-09-24T00:53:23.030Z,99721.59
2022-09-24T00:55:54.490Z,99723.44
2022-09-24T00:58:23.888Z,99722.00
2022-09-24T01:00:53.158Z,99724.47
2022-09-24T01:03:23.173Z,99712.34
2022-09-24T01:05:51.014Z,99714.22
2022-09-24T01:08:20.850Z,99707.25
2022-09-24T01:10:58.285Z,99704.75
2022-09-24T01:13:36.034Z,99705.59
2022-09-24T01:16:08.325Z,99712.16
2022-09-24T01:18:39.769Z,99703.09
2022-09-24T01:21:20.416Z,99714.84
2022-09-24T01:24:18.379Z,99704.75
2022-09-24T01:26:57.026Z,99704.75
2022-09-24T01:29:31.952Z,99703.72
2022-09-24T01:32:05.199Z,99706.38
2022-09-24T01:34:38.494Z,99709.53
2022-09-24T01:37:05.895Z,99706.13
2022-09-24T01:39:34.217Z,99699.88
2022-09-24T01:42:02.215Z,99702.13
2022-09-24T01:44:31.520Z,99706.78
2022-09-24T01:46:59.548Z,99699.44
2022-09-24T01:49:27.349Z,99694.81
2022-09-24T01:51:58.242Z,99690.81
2022-09-24T01:54:28.742Z,99691.03
2022-09-24T01:56:59.593Z,99682.81
2022-09-24T01:59:31.301Z,99683.63
2022-09-24T02:02:02.362Z,99684.66
2022-09-24T02:04:31.160Z,99686.47
2022-09-24T02:07:02.197Z,99687.13
2022-09-24T02:09:31.131Z,99693.78
2022-09-24T02:11:59.685Z,99679.66
2022-09-24T02:14:28.417Z,99682.72
2022-09-24T02:16:58.971Z,99686.88
2022-09-24T02:19:29.457Z,99685.03
2022-09-24T02:21:57.452Z,99687.88
2022-09-24T02:24:27.585Z,99687.03
2022-09-24T02:26:55.004Z,99684.69
2022-09-24T02:29:23.200Z,99690.63
2022-09-24T02:31:51.075Z,99686.09
2022-09-24T02:34:21.993Z,99693.50
2022-09-24T02:36:50.434Z,99685.69
2022-09-24T02:39:18.405Z,99679.16
2022-09-24T02:41:48.029Z,99685.13
2022-09-24T02:44:16.213Z,99682.44
2022-09-24T02:46:43.833Z,99688.75
2022-09-24T02:49:11.681Z,99677.66
2022-09-24T02:51:43.464Z,99674.09
2022-09-24T02:54:11.487Z,99679.44
2022-09-24T02:56:39.013Z,99673.03
2022-09-24T02:59:07.597Z,99671.25
2022-09-24T03:01:35.287Z,99669.31
2022-09-24T03:04:03.289Z,99668.84
2022-09-24T03:06:31.312Z,99658.78
2022-09-24T03:09:00.871Z,99654.50
2022-09-24T03:11:28.882Z,99654.75
2022-09-24T03:13:56.258Z,99647.56
2022-09-24T03:16:23.712Z,99655.75
2022-09-24T03:18:51.110Z,99661.66
2022-09-24T03:21:20.166Z,99658.41
2022-09-24T03:23:47.757Z,99652.44
2022-09-24T03:26:17.476Z,99650.63
2022-09-24T03:28:44.897Z,99652.50
2022-09-24T03:31:12.366Z,99664.13
2022-09-24T03:33:41.692Z,99661.19
2022-09-24T03:36:10.695Z,99658.72
2022-09-24T03:38:39.733Z,99661.38
2022-09-24T03:41:08.427Z,99655.16
2022-09-24T03:43:37.950Z,99650.66
2022-09-24T03:46:06.627Z,99647.06
2022-09-24T03:48:35.264Z,99647.91
2022-09-24T03:51:05.642Z,99654.13
2022-09-24T03:53:33.232Z,99653.38
2022-09-24T03:56:02.309Z,99644.84
2022-09-24T03:58:31.594Z,99655.53
2022-09-24T04:01:00.394Z,99649.41
2022-09-24T04:03:27.758Z,99643.25
2022-09-24T04:05:55.202Z,99644.28
2022-09-24T04:08:23.447Z,99645.38
2022-09-24T04:10:51.901Z,99643.09
2022-09-24T04:13:20.058Z,99645.91
2022-09-24T04:15:48.786Z,99650.06
2022-09-24T04:18:17.620Z,99645.78
2022-09-24T04:20:45.517Z,99640.09
2022-09-24T04:23:12.948Z,99636.41
2022-09-24T04:25:41.362Z,99636.44
2022-09-24T04:28:10.231Z,99643.59
2022-09-24T04:30:39.001Z,99638.19
2022-09-24T04:33:07.122Z,99639.72
2022-09-24T04:35:36.527Z,99629.69
2022-09-24T04:38:04.936Z,99631.25
2022-09-24T04:40:32.398Z,99635.19
2022-09-24T04:43:00.160Z,99632.09
2022-09-24T04:45:27.749Z,99626.56
2022-09-24T04:47:57.327Z,99631.63
2022-09-24T04:50:25.853Z,99629.41
2022-09-24T04:52:55.009Z,99619.56
2022-09-24T04:55:22.684Z,99626.78
2022-09-24T04:57:50.861Z,99626.56
2022-09-24T05:00:20.481Z,99626.72
2022-09-24T05:02:48.372Z,99619.47
2022-09-24T05:05:16.101Z,99618.88
2022-09-24T05:07:44.537Z,99626.91
2022-09-24T05:10:13.229Z,99628.22
2022-09-24T05:12:41.778Z,99631.38
2022-09-24T05:15:10.965Z,99639.00
2022-09-24T05:17:39.663Z,99639.91
2022-09-24T05:20:08.586Z,99640.44
2022-09-24T05:22:37.342Z,99646.19
2022-09-24T05:25:05.232Z,99642.22
2022-09-24T05:27:33.026Z,99639.56
2022-09-24T05:30:00.682Z,99640.97
2022-09-24T05:32:28.142Z,99643.97
2022-09-24T05:34:55.502Z,99645.47
2022-09-24T05:37:22.835Z,99650.06
2022-09-24T05:39:50.194Z,99650.28
2022-09-24T05:42:17.517Z,99646.25
2022-09-24T05:44:49.886Z,99651.84
2022-09-24T05:47:19.413Z,99656.56
2022-09-24T05:49:46.808Z,99655.69
2022-09-24T05:52:14.147Z,99657.56
2022-09-24T05:54:41.562Z,99661.41
2022-09-24T05:57:08.854Z,99664.50
2022-09-24T05:59:36.200Z,99663.25
2022-09-24T06:02:04.941Z,99667.41
2022-09-24T06:04:32.290Z,99668.50
2022-09-24T06:06:59.670Z,99675.69
2022-09-24T06:09:27.022Z,99675.81
2022-09-24T06:11:54.597Z,99670.00
2022-09-24T06:14:21.962Z,99679.63
2022-09-24T06:16:49.334Z,99679.19
2022-09-24T06:19:18.057Z,99679.28
2022-09-24T06:21:45.407Z,99679.06
2022-09-24T06:24:12.750Z,99676.97
2022-09-24T06:26:40.061Z,99685.25
2022-09-24T06:29:07.882Z,99687.13
2022-09-24T06:31:35.492Z,99687.91
2022-09-24T06:34:03.570Z,99686.59
2022-09-24T06:36:32.253Z,99688.28
2022-09-24T06:38:59.946Z,99690.97
2022-09-24T06:41:27.304Z,99698.03
2022-09-24T06:43:54.857Z,99703.59
2022-09-24T06:46:23.013Z,99691.44
2022-09-24T06:48:50.505Z,99696.09
2022-09-24T06:51:17.858Z,99689.25
2022-09-24T06:53:46.506Z,99686.81
2022-09-24T06:56:13.862Z,99686.09
2022-09-24T06:58:41.181Z,99689.09
2022-09-24T07:01:08.975Z,99694.25
2022-09-24T07:03:36.379Z,99684.28
2022-09-24T07:06:05.516Z,99686.19
2022-09-24T07:08:33.550Z,99685.84
2022-09-24T07:11:02.240Z,99683.59
2022-09-24T07:13:29.783Z,99685.91
2022-09-24T07:15:57.264Z,99684.91
2022-09-24T07:18:24.730Z,99676.97
2022-09-24T07:20:52.991Z,99681.28
2022-09-24T07:23:21.437Z,99682.94
2022-09-24T07:25:49.473Z,99682.94
2022-09-24T07:28:18.637Z,99691.19
2022-09-24T07:30:45.985Z,99686.69
2022-09-24T07:33:13.492Z,99686.47
2022-09-24T07:35:41.844Z,99687.50
2022-09-24T07:38:12.784Z,99686.28
2022-09-24T07:40:40.344Z,99682.16
2022-09-24T07:43:13.497Z,99687.91
2022-09-24T07:45:42.774Z,99681.53
2022-09-24T07:48:11.059Z,99681.72
2022-09-24T07:50:40.506Z,99683.56
2022-09-24T07:53:08.026Z,99693.47
2022-09-24T07:55:39.249Z,99687.88
2022-09-24T07:58:07.342Z,99686.03
2022-09-24T08:00:34.662Z,99690.53
2022-09-24T08:03:04.860Z,99694.00
2022-09-24T08:05:32.855Z,99690.91
2022-09-24T08:08:00.591Z,99691.97
2022-09-24T08:10:28.677Z,99699.75
2022-09-24T08:12:56.955Z,99693.50
2022-09-24T08:15:24.478Z,99695.34
2022-09-24T08:17:51.937Z,99701.09
2022-09-24T08:20:21.415Z,99698.75
2022-09-24T08:22:48.860Z,99701.88
2022-09-24T08:25:17.611Z,99705.25
2022-09-24T08:27:45.009Z,99701.31
2022-09-24T08:30:13.456Z,99695.59
2022-09-24T08:32:40.858Z,99703.53
2022-09-24T08:35:09.198Z,99699.66
2022-09-24T08:37:38.933Z,99707.22
2022-09-24T08:40:07.443Z,99705.84
2022-09-24T08:42:40.744Z,99704.72
2022-09-24T08:45:27.253Z,99704.88
2022-09-24T08:47:56.529Z,99705.16
2022-09-24T08:50:25.798Z,99704.03
2022-09-24T08:53:06.415Z,99708.22
2022-09-24T08:55:37.336Z,99712.34
2022-09-24T08:58:21.301Z,99717.72
2022-09-24T09:00:55.539Z,99717.41
2022-09-24T09:03:29.345Z,99722.66
2022-09-24T09:06:00.523Z,99724.47
2022-09-24T09:08:54.947Z,99719.72
2022-09-24T09:11:25.890Z,99719.16
2022-09-24T09:13:57.482Z,99717.50
2022-09-24T09:16:28.851Z,99722.78
2022-09-24T09:19:00.238Z,99727.22
2022-09-24T09:21:31.014Z,99720.53
2022-09-24T09:24:00.459Z,99718.88
2022-09-24T09:26:27.877Z,99719.59
2022-09-24T09:28:59.554Z,99724.16
2022-09-24T09:31:34.399Z,99720.38
2022-09-24T09:34:12.396Z,99719.88
2022-09-24T09:36:47.917Z,99729.06
2022-09-24T09:39:41.487Z,99725.72
2022-09-24T09:42:27.390Z,99723.34
2022-09-24T09:44:55.319Z,99729.59
2022-09-24T09:47:31.372Z,99725.03
2022-09-24T09:50:05.113Z,99726.19
2022-09-24T09:52:36.778Z,99729.66
2022-09-24T09:55:06.570Z,99729.56
2022-09-24T09:57:35.410Z,99725.13
2022-09-24T10:00:03.740Z,99730.72
2022-09-24T10:02:42.960Z,99722.63
2022-09-24T10:05:23.577Z,99728.16
2022-09-24T10:07:54.427Z,99728.41
2022-09-24T10:10:24.617Z,99725.88
2022-09-24T10:12:54.422Z,99722.13
2022-09-24T10:15:24.542Z,99723.53
2022-09-24T10:17:53.557Z,99725.56
2022-09-24T10:20:23.706Z,99729.03
2022-09-24T10:22:52.961Z,99724.00
2022-09-24T10:25:26.117Z,99720.31
2022-09-24T10:27:55.275Z,99726.22
2022-09-24T10:30:33.730Z,99726.44
2022-09-24T10:33:02.455Z,99722.91
2022-09-24T10:35:31.188Z,99721.69
2022-09-24T10:38:00.438Z,99724.91
2022-09-24T10:40:30.978Z,99718.63
2022-09-24T10:43:00.341Z,99719.91
2022-09-24T10:45:55.978Z,99724.28
2022-09-24T10:48:27.295Z,99720.75
2022-09-24T10:50:58.718Z,99726.16
2022-09-24T10:53:34.553Z,99727.44
2022-09-24T10:56:07.591Z,99719.75
2022-09-24T10:58:46.498Z,99719.59
2022-09-24T11:01:18.013Z,99723.03
2022-09-24T11:03:55.318Z,99724.41
2022-09-24T11:06:36.242Z,99719.97
2022-09-24T11:09:11.129Z,99731.47
2022-09-24T11:11:47.784Z,99728.34
2022-09-24T11:14:24.893Z,99721.56
2022-09-24T11:17:23.258Z,99720.47
2022-09-24T11:20:16.636Z,99713.69
2022-09-24T11:22:57.383Z,99716.97
2022-09-24T11:25:32.066Z,99716.69
2022-09-24T11:28:13.197Z,99721.22
2022-09-24T11:30:49.050Z,99717.56
2022-09-24T11:33:27.197Z,99717.31
2022-09-24T11:36:07.271Z,99710.50
2022-09-24T11:38:45.157Z,99714.00
2022-09-24T11:41:23.952Z,99711.88
2022-09-24T11:44:28.880Z,99714.56
2022-09-24T11:47:06.881Z,99709.75
2022-09-24T11:49:45.452Z,99709.88
2022-09-24T11:52:15.286Z,99703.88
2022-09-24T11:54:49.902Z,99714.28
2022-09-24T11:57:23.858Z,99708.22
2022-09-24T11:59:55.404Z,99699.94
2022-09-24T12:02:26.128Z,99709.63
2022-09-24T12:04:58.185Z,99713.72
2022-09-24T12:07:30.997Z,99711.28
2022-09-24T12:10:00.962Z,99703.59
2022-09-24T12:12:30.676Z,99706.97
2022-09-24T12:15:03.021Z,99699.03
2022-09-24T12:17:35.006Z,99708.75
2022-09-24T12:20:06.582Z,99698.78
2022-09-24T12:22:34.238Z,99706.41
2022-09-24T12:25:01.762Z,99713.47
2022-09-24T12:27:34.217Z,99708.81
2022-09-24T12:30:25.318Z,99708.75
2022-09-24T12:32:59.005Z,99709.50
2022-09-24T12:35:34.442Z,99704.94
2022-09-24T12:38:05.145Z,99709.09
2022-09-24T12:40:44.355Z,99711.41
2022-09-24T12:43:17.466Z,99707.72
2022-09-24T12:45:47.570Z,99712.53
2022-09-24T12:48:16.542Z,99715.41
2022-09-24T12:50:45.905Z,99715.69
2022-09-24T12:53:24.527Z,99721.72
2022-09-24T12:55:52.163Z,99719.94
2022-09-24T12:58:29.110Z,99718.16
2022-09-24T13:01:12.170Z,99726.56
2022-09-24T13:03:46.017Z,99719.06
2022-09-24T13:06:24.479Z,99717.38
2022-09-24T13:08:51.873Z,99713.06
2022-09-24T13:11:31.277Z,99707.31
2022-09-24T13:14:07.377Z,99711.63
2022-09-24T13:16:40.337Z,99705.69
2022-09-24T13:19:25.102Z,99705.19
2022-09-24T13:21:56.259Z,99694.63
2022-09-24T13:24:28.802Z,99693.53
2022-09-24T13:26:56.265Z,99687.44
2022-09-24T13:29:25.967Z,99692.81
2022-09-24T13:31:57.557Z,99688.91
2022-09-24T13:34:27.434Z,99694.50
2022-09-24T13:36:58.389Z,99688.97
2022-09-24T13:39:30.566Z,99689.94
2022-09-24T13:42:02.375Z,99696.34
2022-09-24T13:44:32.310Z,99688.41
2022-09-24T13:47:06.208Z,99689.72
2022-09-24T13:49:34.733Z,99687.66
2022-09-24T13:52:10.037Z,99690.78
2022-09-24T13:54:40.442Z,99688.44
2022-09-24T13:57:12.742Z,99690.13
2022-09-24T13:59:40.216Z,99689.31
2022-09-24T14:02:27.766Z,99695.81
2022-09-24T14:04:57.364Z,99689.94
2022-09-24T14:07:25.264Z,99686.78
2022-09-24T14:10:02.913Z,99694.59
2022-09-24T14:12:30.313Z,99693.19
2022-09-24T14:14:58.120Z,99701.00
2022-09-24T14:17:27.376Z,99695.31
2022-09-24T14:19:55.905Z,99700.88
2022-09-24T14:22:25.174Z,99699.50
2022-09-24T14:24:55.590Z,99693.28
2022-09-24T14:27:23.979Z,99698.44
2022-09-24T14:29:55.426Z,99692.22
2022-09-24T14:32:24.243Z,99697.22
2022-09-24T14:34:54.737Z,99692.56
2022-09-24T14:37:24.721Z,99687.28
2022-09-24T14:39:58.678Z,99688.59
2022-09-24T14:42:29.139Z,99689.03
2022-09-24T14:44:56.906Z,99698.16
2022-09-24T14:47:29.222Z,99689.97
2022-09-24T14:49:57.957Z,99689.84
2022-09-24T14:52:31.282Z,99698.13
2022-09-24T14:55:04.746Z,99701.38
2022-09-24T14:57:37.325Z,99692.91
2022-09-24T15:00:19.182Z,99693.94
2022-09-24T15:02:50.451Z,99690.22
2022-09-24T15:05:24.783Z,99692.66
2022-09-24T15:07:52.240Z,99687.28
2022-09-24T15:10:23.194Z,99694.34
2022-09-24T15:12:52.198Z,99693.00
2022-09-24T15:15:32.052Z,99693.75
2022-09-24T15:17:59.734Z,99689.34
2022-09-24T15:20:28.463Z,99693.63
2022-09-24T15:22:56.506Z,99687.88
2022-09-24T15:25:23.857Z,99692.38
2022-09-24T15:27:54.409Z,99695.28
2022-09-24T15:30:22.357Z,99691.31
2022-09-24T15:32:51.058Z,99684.84
2022-09-24T15:35:18.651Z,99689.28
2022-09-24T15:37:48.569Z,99685.31
2022-09-24T15:40:25.782Z,99694.78
2022-09-24T15:42:53.422Z,99695.19
2022-09-24T15:45:22.108Z,99695.13
2022-09-24T15:47:49.768Z,99694.41
2022-09-24T15:50:17.269Z,99703.56
2022-09-24T15:52:48.955Z,99694.63
2022-09-24T15:55:19.170Z,99696.59
2022-09-24T15:57:47.113Z,99701.69
2022-09-24T16:00:16.249Z,99707.63
2022-09-24T16:02:44.973Z,99698.16
2022-09-24T16:05:13.836Z,99701.09
2022-09-24T16:07:41.266Z,99701.38
2022-09-24T16:10:11.153Z,99696.84
2022-09-24T16:12:38.767Z,99703.19
2022-09-24T16:15:07.603Z,99698.25
2022-09-24T16:17:35.033Z,99700.34
2022-09-24T16:20:02.848Z,99697.13
2022-09-24T16:22:30.235Z,99693.56
2022-09-24T16:24:57.659Z,99690.50
2022-09-24T16:27:29.692Z,99697.53
2022-09-24T16:29:57.091Z,99703.47
2022-09-24T16:32:24.412Z,99696.91
2022-09-24T16:34:51.866Z,99699.16
2022-09-24T16:37:19.225Z,99700.84
2022-09-24T16:39:47.545Z,99710.13
2022-09-24T16:42:14.861Z,99708.28
2022-09-24T16:44:43.554Z,99701.69
2022-09-24T16:47:10.946Z,99701.44
2022-09-24T16:49:38.321Z,99709.09
2022-09-24T16:52:06.117Z,99702.31
2022-09-24T16:54:33.495Z,99698.63
2022-09-24T16:57:01.774Z,99699.81
2022-09-24T16:59:29.145Z,99705.41
2022-09-24T17:01:59.379Z,99701.28
2022-09-24T17:04:26.911Z,99706.25
2022-09-24T17:06:54.681Z,99700.69
2022-09-24T17:09:39.878Z,99700.63
2022-09-24T17:12:07.472Z,99699.41
2022-09-24T17:14:37.437Z,99698.97
2022-09-24T17:17:06.629Z,99697.13
2022-09-24T17:19:34.202Z,99698.38
2022-09-24T17:22:01.720Z,99700.44
2022-09-24T17:24:29.239Z,99697.53
2022-09-24T17:26:56.658Z,99705.38
2022-09-24T17:29:30.422Z,99702.47
2022-09-24T17:31:58.968Z,99705.09
2022-09-24T17:34:28.189Z,99699.38
2022-09-24T17:36:56.424Z,99709.84
2022-09-24T17:39:24.041Z,99700.00
2022-09-24T17:41:51.365Z,99704.44
2022-09-24T17:44:18.895Z,99703.06
2022-09-24T17:46:46.388Z,99704.06
2022-09-24T17:49:15.354Z,99697.50
2022-09-24T17:51:46.337Z,99708.56
2022-09-24T17:54:15.615Z,99705.72
2022-09-24T17:56:43.297Z,99711.00
2022-09-24T17:59:12.670Z,99712.25
2022-09-24T18:01:44.553Z,99711.38
2022-09-24T18:04:13.831Z,99708.34
2022-09-24T18:06:42.494Z,99709.97
2022-09-24T18:09:12.989Z,99706.66
2022-09-24T18:11:41.738Z,99714.69
2022-09-24T18:14:14.370Z,99721.22
2022-09-24T18:16:42.227Z,99710.84
2022-09-24T18:19:10.697Z,99717.38
2022-09-24T18:21:38.181Z,99720.41
2022-09-24T18:24:06.077Z,99724.28
2022-09-24T18:26:36.508Z,99727.97
2022-09-24T18:29:05.942Z,99727.19
2022-09-24T18:31:34.694Z,99728.66
2022-09-24T18:34:04.140Z,99734.44
2022-09-24T18:36:32.037Z,99738.00
2022-09-24T18:38:59.373Z,99735.97
2022-09-24T18:41:28.765Z,99739.75
2022-09-24T18:43:58.754Z,99730.34
2022-09-24T18:46:28.978Z,99737.34
2022-09-24T18:48:57.378Z,99729.75
2022-09-24T18:51:26.633Z,99734.09
2022-09-24T18:53:54.997Z,99727.34
2022-09-24T18:56:23.821Z,99734.50
2022-09-24T18:58:57.016Z,99739.31
2022-09-24T19:01:25.168Z,99739.34
2022-09-24T19:03:52.721Z,99742.63
2022-09-24T19:06:20.429Z,99747.75
2022-09-24T19:08:48.921Z,99749.22
2022-09-24T19:11:17.405Z,99745.03
2022-09-24T19:13:49.348Z,99748.94
2022-09-24T19:16:21.078Z,99755.97
2022-09-24T19:18:48.537Z,99753.50
2022-09-24T19:21:16.368Z,99755.56
2022-09-24T19:23:45.774Z,99759.47
2022-09-24T19:26:15.346Z,99757.25
2022-09-24T19:28:43.378Z,99760.75
2022-09-24T19:31:14.774Z,99762.59
2022-09-24T19:33:43.972Z,99757.47
2022-09-24T19:36:11.664Z,99760.56
2022-09-24T19:38:39.092Z,99768.19
2022-09-24T19:41:08.410Z,99762.25
2022-09-24T19:43:35.846Z,99765.13
2022-09-24T19:46:05.760Z,99764.50
2022-09-24T19:48:36.449Z,99765.94
2022-09-24T19:51:08.554Z,99769.22
2022-09-24T19:53:37.537Z,99763.03
2022-09-24T19:56:05.541Z,99769.03
2022-09-24T19:58:33.508Z,99771.88
2022-09-24T20:01:05.396Z,99772.72
2022-09-24T20:03:33.115Z,99776.44
2022-09-24T20:06:00.593Z,99767.59
2022-09-24T20:08:29.423Z,99769.19
2022-09-24T20:10:56.777Z,99768.81
2022-09-24T20:13:24.118Z,99764.06
2022-09-24T20:15:58.373Z,99758.47
2022-09-24T20:18:26.175Z,99775.34
2022-09-24T20:20:54.514Z,99776.34
2022-09-24T20:23:22.169Z,99774.53
2022-09-24T20:26:12.632Z,99770.16
2022-09-24T20:28:40.422Z,99774.88
2022-09-24T20:31:10.104Z,99773.16
2022-09-24T20:33:38.358Z,99774.22
2022-09-24T20:36:14.733Z,99776.47
2022-09-24T20:38:44.397Z,99775.50
2022-09-24T20:41:15.193Z,99772.59
2022-09-24T20:43:43.326Z,99775.69
2022-09-24T20:46:14.013Z,99776.09
2022-09-24T20:48:41.433Z,99781.19
2022-09-24T20:51:09.779Z,99777.72
2022-09-24T20:53:37.248Z,99781.63
2022-09-24T20:56:05.854Z,99776.47
2022-09-24T20:58:34.636Z,99775.69
2022-09-24T21:01:05.381Z,99780.84
2022-09-24T21:03:49.924Z,99772.41
2022-09-24T21:06:18.446Z,99776.91
2022-09-24T21:08:47.310Z,99770.56
2022-09-24T21:11:17.873Z,99774.84
2022-09-24T21:13:48.889Z,99780.63
2022-09-24T21:16:17.503Z,99780.66
2022-09-24T21:18:45.034Z,99776.72
2022-09-24T21:21:15.975Z,99779.41
2022-09-24T21:23:43.881Z,99778.38
2022-09-24T21:26:13.018Z,99773.25
2022-09-24T21:28:40.450Z,99775.91
2022-09-24T21:31:09.210Z,99778.34
2022-09-24T21:33:36.661Z,99775.69
2022-09-24T21:36:05.604Z,99779.56
2022-09-24T21:38:33.369Z,99782.81
2022-09-24T21:41:03.166Z,99781.38
2022-09-24T21:43:34.599Z,99778.50
2022-09-24T21:46:04.888Z,99786.31
2022-09-24T21:48:34.373Z,99788.94
2022-09-24T21:51:06.442Z,99788.38
2022-09-24T21:53:34.392Z,99787.56
2022-09-24T21:56:02.373Z,99791.91
2022-09-24T21:58:30.481Z,99793.56
2022-09-24T22:01:00.930Z,99783.47
2022-09-24T22:03:31.010Z,99782.88
2022-09-24T22:06:03.857Z,99782.69
2022-09-24T22:08:31.960Z,99776.53
2022-09-24T22:11:04.285Z,99781.28
2022-09-24T22:13:32.630Z,99786.38
2022-09-24T22:16:01.442Z,99786.59
2022-09-24T22:18:28.913Z,99790.72
2022-09-24T22:20:57.849Z,99778.97
2022-09-24T22:23:26.779Z,99779.41
2022-09-24T22:25:56.092Z,99784.75
2022-09-24T22:28:25.018Z,99782.69
2022-09-24T22:30:53.247Z,99784.34
2022-09-24T22:33:41.170Z,99776.09
2022-09-24T22:36:08.953Z,99778.94
2022-09-24T22:38:37.881Z,99778.75
2022-09-24T22:41:08.034Z,99777.75
2022-09-24T22:43:35.829Z,99780.19
2022-09-24T22:46:05.607Z,99780.59
2022-09-24T22:48:33.352Z,99783.06
2022-09-24T22:51:00.822Z,99780.38
2022-09-24T22:53:28.345Z,99768.88
2022-09-24T22:56:05.328Z,99783.88
2022-09-24T22:58:33.542Z,99779.97
2022-09-24T23:01:07.383Z,99778.91
2022-09-24T23:03:35.162Z,99785.19
2022-09-24T23:06:02.642Z,99782.16
2022-09-24T23:08:33.222Z,99785.38
2022-09-24T23:11:07.926Z,99783.34
2022-09-24T23:13:35.728Z,99777.63
2022-09-24T23:16:11.566Z,99768.19
2022-09-24T23:18:39.289Z,99773.31
2022-09-24T23:21:07.266Z,99772.50
2022-09-24T23:23:34.763Z,99776.81
2022-09-24T23:26:04.724Z,99771.69
2022-09-24T23:28:33.760Z,99768.38
2022-09-24T23:31:01.598Z,99766.88
2022-09-24T23:33:32.237Z,99766.72
2022-09-24T23:35:59.871Z,99773.28
2022-09-24T23:38:27.503Z,99770.78
2022-09-24T23:40:54.990Z,99776.13
2022-09-24T23:43:55.653Z,99785.00
2022-09-24T23:46:23.074Z,99775.59
2022-09-24T23:48:50.489Z,99774.56
2022-09-24T23:51:17.839Z,99769.25
2022-09-24T23:53:45.194Z,99769.25
2022-09-24T23:56:13.280Z,99777.28
2022-09-24T23:58:41.941Z,99777.06
